createdAt,value
2022-10-08T00:04:56.872Z,8.70
2022-10-08T00:06:07.227Z,8.70
2022-10-08T00:07:13.170Z,8.70
2022-10-08T00:10:01.724Z,8.80
2022-10-08T00:11:13.878Z,8.80
2022-10-08T00:12:17.005Z,8.80
2022-10-08T00:13:20.144Z,8.90
2022-10-08T00:14:28.298Z,8.80
2022-10-08T00:15:36.772Z,8.80
2022-10-08T00:16:43.941Z,8.90
2022-10-08T00:17:46.404Z,8.90
2022-10-08T00:18:50.007Z,8.80
2022-10-08T00:19:53.114Z,8.90
2022-10-08T00:21:05.887Z,8.90
2022-10-08T00:22:08.136Z,8.90
2022-10-08T00:23:10.578Z,8.90
2022-10-08T00:24:17.871Z,8.90
2022-10-08T00:25:23.124Z,8.80
2022-10-08T00:26:29.257Z,8.90
2022-10-08T00:27:33.999Z,8.90
2022-10-08T00:28:45.008Z,8.90
2022-10-08T00:29:51.388Z,8.80
2022-10-08T00:30:56.473Z,8.80
2022-10-08T00:33:24.355Z,8.80
2022-10-08T00:34:31.742Z,8.80
2022-10-08T00:35:39.264Z,8.80
2022-10-08T00:36:43.464Z,8.80
2022-10-08T00:37:46.894Z,8.80
2022-10-08T00:38:55.135Z,8.80
2022-10-08T00:40:00.447Z,8.80
2022-10-08T00:41:02.847Z,8.80
2022-10-08T00:42:05.142Z,8.80
2022-10-08T00:43:07.964Z,8.80
2022-10-08T00:44:43.901Z,8.80
2022-10-08T00:46:01.630Z,8.80
2022-10-08T00:47:10.349Z,8.80
2022-10-08T00:48:25.941Z,8.70
2022-10-08T00:49:28.846Z,8.80
2022-10-08T00:50:35.508Z,8.70
2022-10-08T00:51:50.160Z,8.70
2022-10-08T00:53:10.664Z,8.80
2022-10-08T00:54:13.878Z,8.70
2022-10-08T00:55:21.717Z,8.80
2022-10-08T00:56:26.647Z,8.70
2022-10-08T00:57:31.775Z,8.70
2022-10-08T00:58:36.261Z,8.70
2022-10-08T00:59:40.197Z,8.70
2022-10-08T01:00:42.220Z,8.70
2022-10-08T01:01:49.060Z,8.70
2022-10-08T01:02:53.667Z,8.70
2022-10-08T01:04:02.859Z,8.70
2022-10-08T01:05:10.383Z,8.70
2022-10-08T01:06:32.536Z,8.70
2022-10-08T01:07:39.349Z,8.70
2022-10-08T01:09:09.514Z,8.60
2022-10-08T01:10:46.517Z,8.60
2022-10-08T01:12:06.074Z,8.60
2022-10-08T01:13:19.409Z,8.60
2022-10-08T01:14:45.558Z,8.60
2022-10-08T01:16:16.453Z,8.60
2022-10-08T01:17:37.771Z,8.60
2022-10-08T01:19:18.881Z,8.60
2022-10-08T01:20:40.375Z,8.60
2022-10-08T01:21:51.293Z,8.60
2022-10-08T01:23:02.138Z,8.50
2022-10-08T01:25:12.337Z,8.50
2022-10-08T01:26:34.022Z,8.50
2022-10-08T01:27:42.619Z,8.50
2022-10-08T01:28:57.650Z,8.50
2022-10-08T01:30:06.707Z,8.50
2022-10-08T01:32:43.729Z,8.60
2022-10-08T01:33:53.472Z,8.50
2022-10-08T01:35:04.626Z,8.50
2022-10-08T01:36:09.997Z,8.50
2022-10-08T01:37:37.002Z,8.60
2022-10-08T01:38:43.383Z,8.60
2022-10-08T01:39:49.527Z,8.60
2022-10-08T01:40:59.318Z,8.60
2022-10-08T01:42:03.717Z,8.60
2022-10-08T01:43:10.294Z,8.60
2022-10-08T01:44:21.524Z,8.60
2022-10-08T01:45:26.408Z,8.60
2022-10-08T01:46:30.346Z,8.50
2022-10-08T01:47:38.081Z,8.50
2022-10-08T01:48:42.357Z,8.50
2022-10-08T01:49:52.156Z,8.50
2022-10-08T01:50:58.865Z,8.50
2022-10-08T01:52:08.130Z,8.50
2022-10-08T01:53:15.893Z,8.50
2022-10-08T01:54:18.754Z,8.50
2022-10-08T01:55:37.062Z,8.50
2022-10-08T01:56:42.014Z,8.50
2022-10-08T01:57:47.174Z,8.50
2022-10-08T01:59:07.621Z,8.50
2022-10-08T02:00:12.645Z,8.50
2022-10-08T02:01:29.451Z,8.50
2022-10-08T02:02:31.443Z,8.50
2022-10-08T02:03:33.365Z,8.50
2022-10-08T02:04:37.228Z,8.50
2022-10-08T02:05:46.310Z,8.50
2022-10-08T02:07:01.075Z,8.50
2022-10-08T02:08:05.518Z,8.50
2022-10-08T02:09:11.682Z,8.50
2022-10-08T02:10:28.218Z,8.50
2022-10-08T02:11:44.777Z,8.50
2022-10-08T02:12:50.292Z,8.50
2022-10-08T02:13:54.145Z,8.50
2022-10-08T02:23:12.657Z,8.30
2022-10-08T02:24:28.365Z,8.20
2022-10-08T02:25:48.678Z,8.20
2022-10-08T02:26:55.868Z,8.30
2022-10-08T02:28:15.531Z,8.30
2022-10-08T02:29:30.011Z,8.30
2022-10-08T02:30:41.362Z,8.30
2022-10-08T02:31:50.731Z,8.30
2022-10-08T02:33:06.472Z,8.30
2022-10-08T02:34:25.300Z,8.30
2022-10-08T02:35:37.471Z,8.30
2022-10-08T02:36:43.672Z,8.30
2022-10-08T02:38:32.719Z,8.30
2022-10-08T02:39:39.194Z,8.30
2022-10-08T02:40:50.613Z,8.30
2022-10-08T02:41:57.065Z,8.30
2022-10-08T02:43:05.583Z,8.30
2022-10-08T02:44:19.645Z,8.30
2022-10-08T02:45:37.087Z,8.30
2022-10-08T02:46:51.307Z,8.30
2022-10-08T02:48:05.200Z,8.30
2022-10-08T02:49:15.566Z,8.30
2022-10-08T02:50:28.298Z,8.30
2022-10-08T02:51:35.153Z,8.20
2022-10-08T02:52:41.209Z,8.20
2022-10-08T02:53:43.211Z,8.20
2022-10-08T02:54:46.505Z,8.20
2022-10-08T02:56:07.328Z,8.20
2022-10-08T02:57:24.038Z,8.30
2022-10-08T02:58:26.421Z,8.20
2022-10-08T02:59:28.342Z,8.20
2022-10-08T03:00:42.616Z,8.20
2022-10-08T03:02:04.542Z,8.20
2022-10-08T03:03:16.151Z,8.20
2022-10-08T03:04:33.129Z,8.10
2022-10-08T03:05:37.026Z,8.20
2022-10-08T03:06:40.366Z,8.10
2022-10-08T03:07:42.778Z,8.10
2022-10-08T03:08:49.701Z,8.20
2022-10-08T03:09:53.793Z,8.20
2022-10-08T03:10:56.590Z,8.20
2022-10-08T03:12:00.798Z,8.20
2022-10-08T03:13:03.711Z,8.10
2022-10-08T03:14:11.183Z,8.20
2022-10-08T03:15:15.140Z,8.20
2022-10-08T03:16:22.883Z,8.20
2022-10-08T03:17:31.592Z,8.10
2022-10-08T03:18:34.302Z,8.20
2022-10-08T03:19:37.920Z,8.10
2022-10-08T03:20:51.955Z,8.20
2022-10-08T03:21:56.365Z,8.20
2022-10-08T03:23:04.416Z,8.20
2022-10-08T03:24:08.999Z,8.20
2022-10-08T03:25:11.881Z,8.20
2022-10-08T03:26:17.929Z,8.20
2022-10-08T03:27:19.994Z,8.20
2022-10-08T03:28:25.285Z,8.20
2022-10-08T03:29:27.247Z,8.20
2022-10-08T03:30:30.964Z,8.10
2022-10-08T03:31:36.396Z,8.20
2022-10-08T03:32:40.751Z,8.10
2022-10-08T03:33:52.593Z,8.10
2022-10-08T03:34:54.443Z,8.10
2022-10-08T03:35:58.844Z,8.10
2022-10-08T03:37:03.578Z,8.10
2022-10-08T03:38:05.539Z,8.10
2022-10-08T03:39:07.852Z,8.10
2022-10-08T03:40:14.102Z,8.20
2022-10-08T03:41:19.456Z,8.10
2022-10-08T03:42:23.448Z,8.20
2022-10-08T03:43:35.445Z,8.10
2022-10-08T03:44:38.686Z,8.10
2022-10-08T03:45:52.636Z,8.10
2022-10-08T03:46:54.801Z,8.10
2022-10-08T03:48:00.043Z,8.00
2022-10-08T03:49:04.101Z,8.00
2022-10-08T03:50:07.575Z,8.00
2022-10-08T03:51:17.597Z,8.00
2022-10-08T03:52:20.251Z,8.10
2022-10-08T03:53:22.836Z,8.00
2022-10-08T03:54:25.126Z,8.00
2022-10-08T03:55:28.823Z,8.00
2022-10-08T03:56:30.696Z,8.00
2022-10-08T03:57:37.024Z,8.00
2022-10-08T03:58:40.841Z,8.00
2022-10-08T03:59:43.074Z,8.00
2022-10-08T04:00:44.947Z,8.00
2022-10-08T04:01:46.876Z,8.00
2022-10-08T04:02:51.251Z,8.00
2022-10-08T04:03:53.942Z,8.00
2022-10-08T04:04:56.014Z,8.00
2022-10-08T04:05:58.364Z,8.00
2022-10-08T04:07:00.190Z,8.00
2022-10-08T04:08:02.656Z,8.00
2022-10-08T04:09:04.808Z,8.00
2022-10-08T04:10:10.577Z,8.00
2022-10-08T04:11:18.756Z,8.00
2022-10-08T04:12:31.952Z,8.00
2022-10-08T04:14:15.877Z,8.00
2022-10-08T04:15:20.293Z,7.90
2022-10-08T04:16:27.571Z,7.90
2022-10-08T04:17:31.058Z,7.90
2022-10-08T04:18:36.812Z,7.90
2022-10-08T04:19:44.606Z,7.90
2022-10-08T04:20:51.269Z,7.90
2022-10-08T04:22:02.427Z,7.90
2022-10-08T04:23:22.216Z,7.90
2022-10-08T04:24:42.908Z,7.90
2022-10-08T04:27:39.505Z,7.80
2022-10-08T04:28:58.639Z,7.80
2022-10-08T04:30:03.520Z,7.80
2022-10-08T04:31:33.886Z,7.80
2022-10-08T04:34:21.808Z,7.80
2022-10-08T04:37:17.140Z,7.70
2022-10-08T04:38:26.203Z,7.70
2022-10-08T04:39:40.407Z,7.70
2022-10-08T04:44:56.982Z,7.80
2022-10-08T04:46:01.482Z,7.70
2022-10-08T04:47:03.798Z,7.70
2022-10-08T04:48:05.640Z,7.70
2022-10-08T04:49:07.479Z,7.70
2022-10-08T04:50:09.696Z,7.70
2022-10-08T04:51:17.789Z,7.70
2022-10-08T04:52:26.817Z,7.70
2022-10-08T04:53:29.351Z,7.70
2022-10-08T04:54:31.444Z,7.80
2022-10-08T04:55:34.270Z,7.80
2022-10-08T04:56:36.782Z,7.80
2022-10-08T04:57:38.646Z,7.80
2022-10-08T04:58:41.588Z,7.80
2022-10-08T05:00:05.783Z,7.80
2022-10-08T05:01:08.193Z,7.80
2022-10-08T05:02:10.193Z,7.80
2022-10-08T05:03:12.713Z,7.80
2022-10-08T05:04:18.100Z,7.80
2022-10-08T05:05:23.633Z,7.80
2022-10-08T05:06:28.301Z,7.80
2022-10-08T05:07:31.057Z,7.80
2022-10-08T05:08:33.775Z,7.80
2022-10-08T05:09:35.911Z,7.80
2022-10-08T05:10:38.246Z,7.80
2022-10-08T05:11:40.309Z,7.80
2022-10-08T05:12:42.254Z,7.90
2022-10-08T05:13:48.837Z,7.80
2022-10-08T05:14:51.301Z,7.90
2022-10-08T05:16:19.391Z,7.90
2022-10-08T05:17:37.697Z,7.90
2022-10-08T05:18:41.353Z,7.90
2022-10-08T05:19:48.650Z,7.90
2022-10-08T05:20:59.640Z,7.90
2022-10-08T05:23:22.601Z,7.90
2022-10-08T05:24:27.533Z,7.90
2022-10-08T05:25:34.693Z,7.90
2022-10-08T05:26:58.832Z,7.90
2022-10-08T05:28:09.390Z,7.90
2022-10-08T05:29:20.655Z,7.90
2022-10-08T05:32:29.987Z,8.00
2022-10-08T05:33:31.950Z,7.90
2022-10-08T05:34:35.746Z,7.90
2022-10-08T05:35:48.074Z,8.00
2022-10-08T05:37:03.227Z,8.00
2022-10-08T05:38:57.965Z,8.00
2022-10-08T05:40:02.618Z,8.10
2022-10-08T05:41:14.352Z,8.10
2022-10-08T05:42:23.695Z,8.10
2022-10-08T05:44:11.342Z,8.10
2022-10-08T05:45:32.869Z,8.20
2022-10-08T05:46:44.649Z,8.20
2022-10-08T05:48:00.533Z,8.20
2022-10-08T05:49:05.082Z,8.30
2022-10-08T05:50:40.252Z,8.30
2022-10-08T05:51:43.129Z,8.30
2022-10-08T05:52:46.660Z,8.40
2022-10-08T05:53:51.531Z,8.40
2022-10-08T05:54:59.278Z,8.40
2022-10-08T05:56:07.747Z,8.50
2022-10-08T05:57:40.405Z,8.50
2022-10-08T05:58:44.598Z,8.50
2022-10-08T05:59:46.266Z,8.50
2022-10-08T06:01:00.303Z,8.60
2022-10-08T06:02:06.843Z,8.60
2022-10-08T06:03:08.727Z,8.70
2022-10-08T06:04:12.103Z,8.70
2022-10-08T06:05:14.025Z,8.80
2022-10-08T06:06:15.983Z,8.80
2022-10-08T06:07:19.266Z,8.90
2022-10-08T06:08:22.570Z,8.90
2022-10-08T06:09:24.517Z,8.90
2022-10-08T06:10:26.259Z,9.00
2022-10-08T06:11:29.683Z,9.10
2022-10-08T06:12:31.564Z,9.10
2022-10-08T06:13:34.473Z,9.10
2022-10-08T06:14:36.304Z,9.20
2022-10-08T06:15:38.477Z,9.30
2022-10-08T06:16:40.801Z,9.20
2022-10-08T06:17:42.704Z,9.30
2022-10-08T06:18:44.375Z,9.30
2022-10-08T06:19:46.188Z,9.40
2022-10-08T06:20:47.917Z,9.40
2022-10-08T06:21:50.153Z,9.40
2022-10-08T06:22:51.877Z,9.50
2022-10-08T06:23:59.209Z,9.50
2022-10-08T06:25:01.029Z,9.50
2022-10-08T06:26:07.365Z,9.50
2022-10-08T06:27:09.172Z,9.50
2022-10-08T06:28:11.395Z,9.60
2022-10-08T06:29:16.263Z,9.60
2022-10-08T06:30:18.259Z,9.60
2022-10-08T06:31:20.290Z,9.60
2022-10-08T06:32:22.279Z,9.60
2022-10-08T06:33:24.163Z,9.70
2022-10-08T06:34:26.360Z,9.70
2022-10-08T06:35:29.875Z,9.70
2022-10-08T06:36:33.461Z,9.70
2022-10-08T06:37:35.546Z,9.70
2022-10-08T06:38:37.304Z,9.70
2022-10-08T06:39:39.195Z,9.70
2022-10-08T06:40:41.131Z,9.80
2022-10-08T06:41:43.173Z,9.80
2022-10-08T06:42:45.518Z,9.80
2022-10-08T06:43:48.539Z,9.80
2022-10-08T06:44:50.308Z,9.80
2022-10-08T06:45:53.622Z,9.80
2022-10-08T06:46:55.504Z,9.90
2022-10-08T06:47:57.416Z,10.10
2022-10-08T06:49:00.921Z,10.10
2022-10-08T06:50:02.737Z,10.10
2022-10-08T06:51:13.671Z,10.10
2022-10-08T06:52:15.763Z,10.10
2022-10-08T06:53:18.230Z,10.00
2022-10-08T06:54:19.953Z,10.00
2022-10-08T06:55:22.321Z,10.00
2022-10-08T06:56:25.659Z,10.10
2022-10-08T06:57:27.994Z,10.10
2022-10-08T06:58:30.408Z,10.10
2022-10-08T06:59:32.289Z,10.10
2022-10-08T07:00:34.182Z,10.20
2022-10-08T07:01:36.882Z,10.20
2022-10-08T07:02:38.938Z,10.20
2022-10-08T07:03:40.909Z,10.20
2022-10-08T07:04:42.944Z,10.30
2022-10-08T07:05:45.656Z,10.30
2022-10-08T07:06:47.880Z,10.30
2022-10-08T07:07:50.035Z,10.40
2022-10-08T07:08:54.954Z,10.40
2022-10-08T07:09:56.845Z,10.40
2022-10-08T07:11:06.951Z,10.50
2022-10-08T07:12:09.047Z,10.50
2022-10-08T07:13:10.771Z,10.50
2022-10-08T07:14:12.544Z,10.50
2022-10-08T07:15:14.411Z,10.60
2022-10-08T07:16:21.142Z,10.60
2022-10-08T07:17:26.216Z,10.60
2022-10-08T07:18:27.923Z,10.70
2022-10-08T07:19:32.307Z,10.70
2022-10-08T07:20:36.986Z,10.60
2022-10-08T07:21:38.950Z,10.70
2022-10-08T07:22:40.702Z,10.70
2022-10-08T07:23:42.740Z,10.80
2022-10-08T07:24:44.433Z,10.80
2022-10-08T07:25:58.515Z,10.80
2022-10-08T07:27:00.890Z,10.90
2022-10-08T07:28:02.942Z,10.90
2022-10-08T07:29:08.304Z,10.90
2022-10-08T07:30:10.684Z,10.90
2022-10-08T07:31:19.530Z,10.90
2022-10-08T07:32:21.752Z,11.00
2022-10-08T07:33:23.498Z,11.00
2022-10-08T07:34:25.332Z,11.10
2022-10-08T07:35:29.370Z,11.10
2022-10-08T07:36:32.281Z,11.10
2022-10-08T07:37:34.053Z,11.20
2022-10-08T07:38:35.900Z,11.20
2022-10-08T07:39:37.690Z,11.30
2022-10-08T07:40:39.698Z,11.30
2022-10-08T07:41:42.375Z,11.40
2022-10-08T07:42:44.882Z,11.40
2022-10-08T07:43:51.864Z,11.40
2022-10-08T07:44:53.571Z,11.50
2022-10-08T07:45:55.449Z,11.60
2022-10-08T07:46:57.617Z,11.60
2022-10-08T07:47:59.478Z,11.60
2022-10-08T07:49:02.248Z,11.70
2022-10-08T07:50:04.556Z,11.70
2022-10-08T07:51:11.473Z,11.80
2022-10-08T07:52:13.325Z,11.80
2022-10-08T07:53:15.238Z,11.80
2022-10-08T07:54:22.205Z,11.90
2022-10-08T07:55:24.105Z,11.90
2022-10-08T07:56:25.918Z,11.90
2022-10-08T07:57:28.153Z,12.00
2022-10-08T07:58:30.333Z,12.00
2022-10-08T07:59:33.068Z,12.00
2022-10-08T08:00:35.063Z,12.00
2022-10-08T08:01:37.038Z,12.00
2022-10-08T08:02:38.755Z,12.10
2022-10-08T08:03:50.034Z,12.10
2022-10-08T08:04:52.170Z,12.10
2022-10-08T08:05:54.634Z,12.10
2022-10-08T08:06:56.643Z,12.10
2022-10-08T08:07:58.681Z,12.10
2022-10-08T08:09:04.725Z,12.20
2022-10-08T08:10:07.648Z,12.20
2022-10-08T08:11:11.321Z,12.20
2022-10-08T08:12:13.532Z,12.20
2022-10-08T08:13:15.415Z,12.30
2022-10-08T08:14:20.604Z,12.30
2022-10-08T08:15:22.616Z,12.40
2022-10-08T08:16:27.027Z,12.40
2022-10-08T08:17:29.568Z,12.50
2022-10-08T08:18:34.724Z,12.60
2022-10-08T08:19:40.295Z,12.60
2022-10-08T08:20:45.346Z,12.70
2022-10-08T08:21:52.250Z,12.70
2022-10-08T08:22:54.830Z,12.70
2022-10-08T08:23:58.999Z,12.80
2022-10-08T08:25:00.714Z,12.90
2022-10-08T08:26:08.592Z,12.90
2022-10-08T08:27:10.988Z,12.90
2022-10-08T08:28:20.839Z,13.00
2022-10-08T08:29:57.854Z,13.00
2022-10-08T08:31:19.094Z,13.10
2022-10-08T08:32:26.108Z,13.10
2022-10-08T08:33:30.100Z,13.10
2022-10-08T08:34:32.182Z,13.20
2022-10-08T08:35:33.867Z,13.20
2022-10-08T08:36:44.524Z,13.20
2022-10-08T08:37:46.235Z,13.30
2022-10-08T08:38:48.293Z,13.30
2022-10-08T08:39:50.115Z,13.40
2022-10-08T08:41:22.108Z,13.50
2022-10-08T08:42:37.715Z,13.60
2022-10-08T08:43:45.290Z,13.70
2022-10-08T08:44:51.167Z,13.80
2022-10-08T08:46:09.438Z,13.90
2022-10-08T08:47:47.281Z,13.90
2022-10-08T08:48:59.621Z,13.90
2022-10-08T08:50:47.921Z,13.90
2022-10-08T08:52:04.705Z,13.90
2022-10-08T08:53:11.315Z,13.90
2022-10-08T08:54:14.978Z,13.90
2022-10-08T08:55:42.587Z,13.90
2022-10-08T08:56:49.259Z,13.90
2022-10-08T08:57:59.485Z,14.00
2022-10-08T08:59:24.234Z,14.00
2022-10-08T09:02:35.994Z,14.20
2022-10-08T09:04:12.620Z,14.20
2022-10-08T09:05:25.387Z,14.30
2022-10-08T09:06:33.947Z,14.30
2022-10-08T09:07:46.519Z,14.40
2022-10-08T09:09:02.611Z,14.40
2022-10-08T09:10:28.173Z,14.60
2022-10-08T09:11:33.972Z,14.70
2022-10-08T09:12:46.441Z,14.60
2022-10-08T09:14:20.305Z,14.60
2022-10-08T09:15:29.623Z,14.60
2022-10-08T09:16:32.907Z,14.70
2022-10-08T09:17:39.202Z,14.80
2022-10-08T09:18:45.244Z,14.80
2022-10-08T09:19:51.569Z,14.80
2022-10-08T09:20:53.398Z,14.80
2022-10-08T09:21:55.584Z,14.80
2022-10-08T09:22:58.816Z,14.70
2022-10-08T09:24:01.577Z,14.80
2022-10-08T09:25:17.013Z,14.90
2022-10-08T09:26:31.148Z,14.90
2022-10-08T09:28:01.664Z,14.80
2022-10-08T09:29:05.127Z,14.80
2022-10-08T09:30:26.416Z,14.70
2022-10-08T09:31:36.195Z,14.80
2022-10-08T09:32:39.599Z,14.80
2022-10-08T09:33:41.636Z,14.90
2022-10-08T09:34:46.242Z,15.00
2022-10-08T09:35:53.284Z,15.00
2022-10-08T09:37:03.395Z,15.00
2022-10-08T09:38:06.260Z,15.00
2022-10-08T09:39:27.944Z,14.90
2022-10-08T09:40:29.905Z,14.90
2022-10-08T09:41:32.224Z,15.00
2022-10-08T09:42:34.318Z,15.00
2022-10-08T09:43:36.617Z,15.00
2022-10-08T09:44:48.318Z,15.10
2022-10-08T09:45:50.134Z,15.10
2022-10-08T09:47:05.628Z,15.10
2022-10-08T09:48:29.775Z,15.10
2022-10-08T09:49:34.842Z,15.00
2022-10-08T09:50:37.682Z,15.00
2022-10-08T09:51:42.585Z,15.00
2022-10-08T09:52:45.531Z,15.10
2022-10-08T09:53:53.245Z,15.10
2022-10-08T09:55:23.010Z,15.00
2022-10-08T09:56:28.237Z,15.10
2022-10-08T09:57:43.983Z,15.20
2022-10-08T09:58:59.458Z,15.20
2022-10-08T10:00:04.015Z,15.20
2022-10-08T10:01:15.736Z,15.30
2022-10-08T10:02:33.931Z,15.20
2022-10-08T10:03:37.068Z,15.30
2022-10-08T10:04:40.311Z,15.30
2022-10-08T10:05:42.388Z,15.40
2022-10-08T10:06:48.236Z,15.40
2022-10-08T10:07:50.986Z,15.50
2022-10-08T10:09:10.781Z,15.50
2022-10-08T10:10:25.983Z,15.60
2022-10-08T10:11:58.229Z,15.60
2022-10-08T10:13:09.695Z,15.60
2022-10-08T10:14:20.424Z,15.70
2022-10-08T10:15:31.803Z,15.70
2022-10-08T10:16:39.604Z,15.80
2022-10-08T10:17:45.777Z,15.80
2022-10-08T10:19:03.276Z,15.90
2022-10-08T10:20:08.200Z,15.90
2022-10-08T10:21:16.090Z,16.00
2022-10-08T10:22:25.345Z,16.10
2022-10-08T10:23:54.896Z,16.10
2022-10-08T10:25:01.360Z,16.10
2022-10-08T10:26:09.025Z,16.00
2022-10-08T10:27:42.315Z,16.00
2022-10-08T10:28:58.342Z,16.00
2022-10-08T10:30:22.301Z,16.00
2022-10-08T10:31:42.421Z,16.00
2022-10-08T10:33:12.015Z,16.00
2022-10-08T10:34:26.911Z,16.00
2022-10-08T10:35:31.615Z,16.10
2022-10-08T10:36:38.864Z,16.10
2022-10-08T10:37:48.254Z,16.20
2022-10-08T10:39:17.886Z,16.30
2022-10-08T10:40:31.888Z,16.30
2022-10-08T10:41:46.859Z,16.30
2022-10-08T10:43:10.151Z,16.30
2022-10-08T10:44:15.810Z,16.50
2022-10-08T10:45:22.427Z,16.70
2022-10-08T10:46:34.389Z,17.20
2022-10-08T10:47:37.980Z,18.10
2022-10-08T10:48:40.193Z,19.00
2022-10-08T10:49:42.946Z,18.90
2022-10-08T10:51:11.829Z,18.70
2022-10-08T10:52:58.921Z,19.30
2022-10-08T10:54:47.138Z,19.50
2022-10-08T10:56:10.641Z,19.50
2022-10-08T10:57:34.988Z,20.30
2022-10-08T10:58:55.710Z,21.00
2022-10-08T11:00:06.781Z,21.70
2022-10-08T11:01:49.546Z,22.00
2022-10-08T11:03:03.019Z,22.20
2022-10-08T11:04:15.308Z,23.20
2022-10-08T11:06:07.156Z,23.50
2022-10-08T11:07:38.375Z,23.60
2022-10-08T11:09:13.666Z,24.20
2022-10-08T11:10:42.934Z,24.50
2022-10-08T11:12:26.957Z,24.70
2022-10-08T11:13:50.145Z,23.90
2022-10-08T11:18:49.258Z,23.80
2022-10-08T11:20:49.122Z,24.00
2022-10-08T12:26:29.754Z,23.30
2022-10-08T12:51:55.008Z,19.70
2022-10-08T12:55:16.652Z,20.10
2022-10-08T12:56:35.439Z,20.70
2022-10-08T13:00:37.541Z,20.90
2022-10-08T13:01:48.029Z,20.60
2022-10-08T13:05:33.032Z,19.90
2022-10-08T13:06:47.499Z,19.40
2022-10-08T13:07:52.915Z,19.20
2022-10-08T13:09:07.964Z,19.10
2022-10-08T13:10:39.130Z,19.00
2022-10-08T13:11:48.704Z,18.90
2022-10-08T13:13:04.858Z,18.70
2022-10-08T13:14:30.422Z,18.50
2022-10-08T13:15:39.471Z,18.40
2022-10-08T13:16:55.586Z,18.40
2022-10-08T13:18:26.123Z,18.30
2022-10-08T13:19:46.494Z,18.20
2022-10-08T13:20:58.872Z,18.20
2022-10-08T13:22:28.340Z,18.10
2022-10-08T13:23:40.200Z,18.00
2022-10-08T13:24:56.086Z,18.00
2022-10-08T13:26:03.629Z,17.90
2022-10-08T13:27:07.536Z,17.90
2022-10-08T13:28:48.361Z,17.90
2022-10-08T13:29:51.147Z,17.90
2022-10-08T13:31:09.718Z,17.80
2022-10-08T13:32:20.270Z,17.80
2022-10-08T13:33:44.383Z,17.70
2022-10-08T13:35:08.867Z,17.70
2022-10-08T13:36:27.729Z,17.60
2022-10-08T13:37:45.436Z,17.60
2022-10-08T13:40:19.982Z,17.60
2022-10-08T13:41:52.200Z,17.60
2022-10-08T13:43:12.783Z,17.60
2022-10-08T13:44:48.232Z,17.60
2022-10-08T13:46:07.096Z,17.60
2022-10-08T13:47:29.848Z,17.50
2022-10-08T13:48:56.186Z,17.60
2022-10-08T13:50:27.748Z,17.50
2022-10-08T13:51:44.831Z,17.50
2022-10-08T13:53:00.477Z,17.50
2022-10-08T13:54:02.371Z,17.40
2022-10-08T13:55:34.845Z,17.40
2022-10-08T13:56:43.004Z,17.40
2022-10-08T13:57:45.262Z,17.40
2022-10-08T13:58:48.701Z,17.30
2022-10-08T13:59:54.410Z,17.30
2022-10-08T14:01:02.019Z,17.30
2022-10-08T14:02:07.863Z,17.20
2022-10-08T14:03:14.999Z,17.30
2022-10-08T14:04:22.157Z,17.20
2022-10-08T14:05:34.222Z,17.30
2022-10-08T14:06:41.366Z,17.30
2022-10-08T14:07:48.128Z,17.20
2022-10-08T14:08:50.361Z,17.20
2022-10-08T14:10:04.377Z,17.10
2022-10-08T14:11:17.985Z,17.20
2022-10-08T14:12:26.741Z,17.10
2022-10-08T14:13:31.081Z,17.10
2022-10-08T14:14:41.529Z,17.10
2022-10-08T14:15:53.609Z,17.10
2022-10-08T14:16:56.521Z,17.00
2022-10-08T14:18:10.429Z,17.00
2022-10-08T14:19:22.904Z,17.00
2022-10-08T14:20:29.863Z,16.90
2022-10-08T14:21:32.560Z,17.00
2022-10-08T14:22:49.932Z,17.00
2022-10-08T14:24:05.778Z,17.00
2022-10-08T14:25:29.920Z,17.00
2022-10-08T14:26:43.326Z,16.90
2022-10-08T14:27:50.113Z,16.90
2022-10-08T14:28:57.907Z,16.90
2022-10-08T14:30:14.506Z,16.80
2022-10-08T14:31:22.775Z,16.80
2022-10-08T14:32:36.139Z,16.80
2022-10-08T14:33:59.187Z,16.80
2022-10-08T14:35:06.525Z,16.80
2022-10-08T14:36:40.954Z,16.80
2022-10-08T14:37:51.973Z,16.70
2022-10-08T14:39:07.282Z,16.70
2022-10-08T14:40:24.599Z,16.70
2022-10-08T14:41:39.293Z,16.70
2022-10-08T14:42:51.487Z,16.70
2022-10-08T14:44:02.286Z,16.60
2022-10-08T14:45:16.946Z,16.60
2022-10-08T14:46:23.118Z,16.60
2022-10-08T14:47:28.139Z,16.60
2022-10-08T14:48:35.164Z,16.60
2022-10-08T14:49:40.867Z,16.60
2022-10-08T14:50:56.515Z,16.60
2022-10-08T14:52:24.248Z,16.60
2022-10-08T14:53:35.759Z,16.50
2022-10-08T14:54:51.694Z,16.50
2022-10-08T14:56:12.760Z,16.40
2022-10-08T14:57:24.041Z,16.50
2022-10-08T14:58:30.111Z,16.50
2022-10-08T14:59:40.291Z,16.40
2022-10-08T15:00:50.806Z,16.30
2022-10-08T15:01:53.274Z,16.30
2022-10-08T15:03:15.846Z,16.30
2022-10-08T15:04:19.933Z,16.30
2022-10-08T15:05:38.564Z,16.20
2022-10-08T15:06:47.085Z,16.20
2022-10-08T15:07:57.742Z,16.20
2022-10-08T15:09:01.798Z,16.20
2022-10-08T15:10:07.839Z,16.10
2022-10-08T15:11:13.547Z,16.10
2022-10-08T15:12:20.271Z,16.10
2022-10-08T15:13:26.551Z,16.00
2022-10-08T15:14:38.200Z,16.00
2022-10-08T15:15:48.970Z,15.90
2022-10-08T15:16:58.467Z,15.90
2022-10-08T15:18:06.989Z,15.90
2022-10-08T15:19:23.603Z,15.80
2022-10-08T15:20:35.680Z,15.80
2022-10-08T15:21:41.945Z,15.80
2022-10-08T15:22:46.264Z,15.70
2022-10-08T15:24:01.794Z,15.70
2022-10-08T15:25:15.536Z,15.70
2022-10-08T15:26:38.397Z,15.60
2022-10-08T15:28:36.348Z,15.60
2022-10-08T15:29:51.031Z,15.50
2022-10-08T15:31:31.740Z,15.40
2022-10-08T15:32:43.545Z,15.40
2022-10-08T15:33:56.078Z,15.30
2022-10-08T15:35:25.160Z,15.30
2022-10-08T15:36:44.525Z,15.20
2022-10-08T15:38:18.921Z,15.20
2022-10-08T15:40:01.145Z,15.20
2022-10-08T15:41:31.368Z,15.10
2022-10-08T15:42:38.609Z,15.10
2022-10-08T15:43:45.856Z,15.10
2022-10-08T15:44:48.675Z,15.00
2022-10-08T15:45:51.525Z,15.00
2022-10-08T15:47:07.725Z,15.00
2022-10-08T15:48:20.851Z,15.00
2022-10-08T15:49:36.197Z,15.00
2022-10-08T15:50:42.074Z,15.00
2022-10-08T15:51:50.010Z,14.90
2022-10-08T15:52:58.044Z,14.90
2022-10-08T15:54:02.342Z,15.00
2022-10-08T15:55:04.891Z,14.90
2022-10-08T15:56:06.926Z,15.00
2022-10-08T15:57:10.664Z,15.00
2022-10-08T15:58:23.129Z,15.00
2022-10-08T15:59:35.606Z,15.00
2022-10-08T16:00:38.278Z,14.90
2022-10-08T16:01:40.281Z,14.90
2022-10-08T16:02:41.954Z,14.90
2022-10-08T16:03:45.820Z,14.90
2022-10-08T16:04:48.315Z,14.90
2022-10-08T16:05:59.442Z,14.90
2022-10-08T16:07:01.362Z,14.90
2022-10-08T16:08:03.130Z,14.90
2022-10-08T16:09:05.367Z,14.80
2022-10-08T16:10:07.912Z,14.80
2022-10-08T16:11:13.599Z,14.80
2022-10-08T16:12:15.468Z,14.80
2022-10-08T16:13:17.299Z,14.80
2022-10-08T16:14:24.200Z,14.80
2022-10-08T16:15:26.040Z,14.80
2022-10-08T16:16:28.238Z,14.80
2022-10-08T16:17:30.638Z,14.80
2022-10-08T16:18:32.493Z,14.80
2022-10-08T16:19:34.465Z,14.80
2022-10-08T16:20:36.273Z,14.80
2022-10-08T16:21:39.688Z,14.70
2022-10-08T16:22:41.518Z,14.80
2022-10-08T16:23:43.407Z,14.70
2022-10-08T16:24:45.219Z,14.70
2022-10-08T16:25:47.225Z,14.70
2022-10-08T16:26:48.963Z,14.70
2022-10-08T16:27:51.042Z,14.70
2022-10-08T16:28:57.668Z,14.70
2022-10-08T16:29:59.525Z,14.70
2022-10-08T16:31:01.686Z,14.70
2022-10-08T16:32:03.764Z,14.60
2022-10-08T16:33:05.593Z,14.60
2022-10-08T16:34:11.664Z,14.60
2022-10-08T16:35:13.557Z,14.60
2022-10-08T16:36:15.448Z,14.60
2022-10-08T16:37:18.302Z,14.50
2022-10-08T16:38:20.343Z,14.50
2022-10-08T16:39:24.533Z,14.50
2022-10-08T16:40:26.681Z,14.50
2022-10-08T16:41:30.651Z,14.50
2022-10-08T16:42:32.805Z,14.50
2022-10-08T16:43:34.659Z,14.50
2022-10-08T16:44:36.364Z,14.40
2022-10-08T16:45:39.283Z,14.40
2022-10-08T16:46:43.925Z,14.40
2022-10-08T16:47:45.778Z,14.40
2022-10-08T16:48:52.631Z,14.30
2022-10-08T16:49:55.532Z,14.30
2022-10-08T16:50:57.347Z,14.30
2022-10-08T16:52:06.864Z,14.20
2022-10-08T16:53:09.531Z,14.20
2022-10-08T16:54:13.627Z,14.20
2022-10-08T16:55:15.366Z,14.20
2022-10-08T16:56:17.536Z,14.20
2022-10-08T16:57:20.370Z,14.10
2022-10-08T16:58:22.023Z,14.10
2022-10-08T16:59:26.376Z,14.10
2022-10-08T17:00:29.049Z,14.10
2022-10-08T17:01:31.680Z,14.10
2022-10-08T17:02:33.982Z,14.00
2022-10-08T17:03:36.711Z,14.00
2022-10-08T17:04:39.952Z,14.00
2022-10-08T17:05:42.336Z,14.00
2022-10-08T17:06:44.591Z,13.90
2022-10-08T17:07:47.931Z,13.90
2022-10-08T17:08:50.467Z,13.90
2022-10-08T17:09:53.509Z,13.90
2022-10-08T17:10:55.275Z,13.80
2022-10-08T17:11:57.035Z,13.80
2022-10-08T17:12:58.714Z,13.80
2022-10-08T17:14:01.836Z,13.80
2022-10-08T17:15:04.448Z,13.70
2022-10-08T17:16:07.780Z,13.70
2022-10-08T17:17:10.744Z,13.70
2022-10-08T17:18:13.702Z,13.70
2022-10-08T17:19:15.684Z,13.60